createdAt,value
2022-08-11T00:02:03.640Z,102403.41
2022-08-11T00:04:37.224Z,102407.81
2022-08-11T00:07:09.812Z,102409.63
2022-08-11T00:09:40.902Z,102397.31
2022-08-11T00:12:17.296Z,102402.63
2022-08-11T00:14:56.978Z,102393.91
2022-08-11T00:17:32.920Z,102402.63
2022-08-11T00:20:14.209Z,102384.34
2022-08-11T00:22:48.254Z,102397.47
2022-08-11T00:25:20.928Z,102393.09
2022-08-11T00:27:51.231Z,102368.63
2022-08-11T00:30:21.435Z,102376.50
2022-08-11T00:32:58.864Z,102382.59
2022-08-11T00:35:55.473Z,102384.38
2022-08-11T00:38:26.558Z,102379.16
2022-08-11T00:41:04.681Z,102380.03
2022-08-11T00:44:19.286Z,102375.66
2022-08-11T00:47:08.092Z,102379.19
2022-08-11T00:49:49.891Z,102376.59
2022-08-11T00:52:48.498Z,102372.22
2022-08-11T00:55:40.839Z,102369.59
2022-08-11T00:58:55.455Z,102374.91
2022-08-11T01:01:48.613Z,102382.84
2022-08-11T01:04:30.788Z,102389.88
2022-08-11T01:08:01.638Z,102381.13
2022-08-11T01:10:21.075Z,102392.50
2022-08-11T01:13:10.984Z,102378.53
2022-08-11T01:15:55.918Z,102376.75
2022-08-11T01:19:04.588Z,102391.66
2022-08-11T01:21:49.893Z,102390.81
2022-08-11T01:24:39.062Z,102396.97
2022-08-11T01:27:56.451Z,102399.66
2022-08-11T01:30:39.382Z,102407.56
2022-08-11T01:33:20.195Z,102398.78
2022-08-11T01:36:07.834Z,102405.84
2022-08-11T01:38:56.075Z,102402.31
2022-08-11T01:41:26.179Z,102402.34
2022-08-11T01:44:30.085Z,102407.63
2022-08-11T01:47:53.752Z,102402.41
2022-08-11T01:50:55.026Z,102411.19
2022-08-11T01:53:43.920Z,102413.81
2022-08-11T01:56:35.433Z,102417.34
2022-08-11T01:59:20.173Z,102424.34
2022-08-11T02:02:08.298Z,102414.69
2022-08-11T02:04:59.760Z,102413.84
2022-08-11T02:07:53.008Z,102410.38
2022-08-11T02:11:08.479Z,102415.63
2022-08-11T02:13:58.632Z,102418.28
2022-08-11T02:16:55.270Z,102412.16
2022-08-11T02:20:02.307Z,102411.31
2022-08-11T02:23:07.571Z,102413.94
2022-08-11T02:25:44.190Z,102413.06
2022-08-11T02:28:17.237Z,102412.19
2022-08-11T02:32:24.277Z,102415.72
2022-08-11T02:34:43.197Z,102417.47
2022-08-11T02:37:27.525Z,102413.97
2022-08-11T02:40:16.424Z,102410.47
2022-08-11T02:42:46.724Z,102415.72
2022-08-11T02:45:32.490Z,102415.75
2022-08-11T02:48:39.992Z,102419.28
2022-08-11T02:51:27.507Z,102416.63
2022-08-11T02:54:22.162Z,102422.78
2022-08-11T02:57:20.445Z,102407.94
2022-08-11T03:00:12.752Z,102421.03
2022-08-11T03:03:16.589Z,102424.56
2022-08-11T03:06:28.368Z,102426.31
2022-08-11T03:09:06.665Z,102422.81
2022-08-11T03:12:53.547Z,102420.22
2022-08-11T03:15:48.011Z,102422.84
2022-08-11T03:18:26.401Z,102421.94
2022-08-11T03:21:09.800Z,102425.47
2022-08-11T03:23:50.633Z,102410.59
2022-08-11T03:27:03.716Z,102423.69
2022-08-11T03:30:01.641Z,102426.31
2022-08-11T03:33:19.463Z,102409.69
2022-08-11T03:36:00.497Z,102425.44
2022-08-11T03:38:46.882Z,102429.81
2022-08-11T03:42:02.907Z,102428.94
2022-08-11T03:44:49.039Z,102414.97
2022-08-11T03:47:28.203Z,102435.06
2022-08-11T03:50:20.265Z,102428.94
2022-08-11T03:53:02.715Z,102431.56
2022-08-11T03:56:09.985Z,102436.81
2022-08-11T03:58:41.967Z,102436.78
2022-08-11T04:01:36.629Z,102437.66
2022-08-11T04:04:24.825Z,102441.16
2022-08-11T04:07:03.779Z,102437.66
2022-08-11T04:09:55.453Z,102435.00
2022-08-11T04:12:55.663Z,102437.59
2022-08-11T04:15:44.309Z,102435.00
2022-08-11T04:18:32.170Z,102441.97
2022-08-11T04:21:25.776Z,102442.84
2022-08-11T04:24:35.833Z,102438.41
2022-08-11T04:27:16.214Z,102442.78
2022-08-11T04:30:11.960Z,102439.28
2022-08-11T04:33:10.497Z,102444.47
2022-08-11T04:36:00.874Z,102449.69
2022-08-11T04:38:53.952Z,102438.28
2022-08-11T04:42:26.176Z,102439.97
2022-08-11T04:45:39.395Z,102436.44
2022-08-11T04:48:38.317Z,102436.41
2022-08-11T04:52:07.164Z,102425.88
2022-08-11T04:55:26.828Z,102430.19
2022-08-11T04:58:35.659Z,102431.06
2022-08-11T05:01:47.569Z,102430.13
2022-08-11T05:05:24.361Z,102430.94
2022-08-11T05:08:18.549Z,102428.25
2022-08-11T05:11:42.043Z,102429.97
2022-08-11T05:14:30.864Z,102422.88
2022-08-11T05:17:28.025Z,102407.09
2022-08-11T05:20:17.042Z,102420.13
2022-08-11T05:23:10.794Z,102418.31
2022-08-11T05:26:44.800Z,102420.84
2022-08-11T05:29:21.435Z,102420.81
2022-08-11T05:32:20.741Z,102425.97
2022-08-11T05:34:55.973Z,102415.41
2022-08-11T05:37:37.423Z,102423.22
2022-08-11T05:40:32.072Z,102411.81
2022-08-11T05:43:31.680Z,102420.47
2022-08-11T05:46:23.311Z,102423.94
2022-08-11T05:49:12.733Z,102426.53
2022-08-11T05:52:05.691Z,102433.47
2022-08-11T05:55:06.029Z,102429.00
2022-08-11T05:57:49.448Z,102430.66
2022-08-11T06:00:24.423Z,102428.88
2022-08-11T06:02:57.865Z,102431.47
2022-08-11T06:05:43.444Z,102422.63
2022-08-11T06:08:15.368Z,102432.19
2022-08-11T06:10:46.433Z,102418.94
2022-08-11T06:13:18.458Z,102426.78
2022-08-11T06:15:52.118Z,102426.69
2022-08-11T06:18:22.758Z,102409.19
2022-08-11T06:20:56.014Z,102427.44
2022-08-11T06:23:32.236Z,102427.41
2022-08-11T06:26:08.449Z,102414.22
2022-08-11T06:28:40.737Z,102425.41
2022-08-11T06:31:19.311Z,102429.75
2022-08-11T06:34:27.368Z,102427.88
2022-08-11T06:37:36.330Z,102401.63
2022-08-11T06:40:18.090Z,102423.31
2022-08-11T06:43:02.371Z,102428.50
2022-08-11T06:46:04.100Z,102430.09
2022-08-11T06:48:36.386Z,102427.41
2022-08-11T06:51:14.728Z,102425.50
2022-08-11T06:53:56.218Z,102419.25
2022-08-11T06:57:26.426Z,102420.88
2022-08-11T07:00:07.825Z,102412.00
2022-08-11T07:02:53.796Z,102410.13
2022-08-11T07:05:24.039Z,102416.09
2022-08-11T07:08:35.988Z,102423.09
2022-08-11T07:11:40.194Z,102424.81
2022-08-11T07:14:35.029Z,102419.44
2022-08-11T07:17:19.113Z,102401.97
2022-08-11T07:20:17.566Z,102413.19
2022-08-11T07:23:20.037Z,102420.16
2022-08-11T07:26:13.335Z,102420.94
2022-08-11T07:28:58.102Z,102426.03
2022-08-11T07:31:42.375Z,102419.72
2022-08-11T07:34:18.199Z,102431.03
2022-08-11T07:36:57.926Z,102422.03
2022-08-11T07:39:32.991Z,102415.81
2022-08-11T07:42:10.151Z,102423.56
2022-08-11T07:45:00.979Z,102404.91
2022-08-11T07:47:50.652Z,102411.81
2022-08-11T07:50:39.847Z,102421.22
2022-08-11T07:53:11.726Z,102414.75
2022-08-11T07:55:51.256Z,102415.47
2022-08-11T07:58:45.495Z,102415.25
2022-08-11T08:01:46.570Z,102411.56
2022-08-11T08:04:37.171Z,102417.59
2022-08-11T08:07:26.243Z,102416.63
2022-08-11T08:10:16.923Z,102414.59
2022-08-11T08:13:05.688Z,102408.19
2022-08-11T08:15:54.599Z,102415.06
2022-08-11T08:18:27.776Z,102427.19
2022-08-11T08:21:12.361Z,102424.59
2022-08-11T08:23:46.959Z,102420.94
2022-08-11T08:26:36.755Z,102427.94
2022-08-11T08:29:26.428Z,102430.56
2022-08-11T08:31:57.945Z,102426.19
2022-08-11T08:34:28.413Z,102424.22
2022-08-11T08:37:03.497Z,102425.88
2022-08-11T08:39:54.750Z,102431.19
2022-08-11T08:42:28.047Z,102423.94
2022-08-11T08:45:12.780Z,102420.47
2022-08-11T08:47:53.226Z,102422.38
2022-08-11T08:50:46.925Z,102402.38
2022-08-11T08:53:29.708Z,102414.59
2022-08-11T08:56:02.271Z,102412.00
2022-08-11T08:58:36.695Z,102419.91
2022-08-11T09:01:10.086Z,102422.53
2022-08-11T09:04:05.182Z,102409.38
2022-08-11T09:06:33.800Z,102417.94
2022-08-11T09:09:05.205Z,102412.69
2022-08-11T09:11:55.615Z,102416.84
2022-08-11T09:14:51.561Z,102391.31
2022-08-11T09:17:23.837Z,102399.81
2022-08-11T09:20:01.516Z,102403.03
2022-08-11T09:23:24.315Z,102385.53
2022-08-11T09:26:04.468Z,102391.28
2022-08-11T09:28:36.966Z,102384.84
2022-08-11T09:31:07.767Z,102396.06
2022-08-11T09:33:38.721Z,102388.97
2022-08-11T09:36:32.193Z,102386.31
2022-08-11T09:39:23.476Z,102364.97
2022-08-11T09:42:00.925Z,102388.38
2022-08-11T09:44:50.107Z,102384.59
2022-08-11T09:47:29.891Z,102354.56
2022-08-11T09:50:02.588Z,102371.69
2022-08-11T09:52:38.080Z,102374.25
2022-08-11T09:55:11.760Z,102374.81
2022-08-11T09:58:05.021Z,102372.63
2022-08-11T10:00:43.485Z,102379.34
2022-08-11T10:03:21.307Z,102361.13
2022-08-11T10:06:20.452Z,102369.72
2022-08-11T10:09:06.524Z,102360.47
2022-08-11T10:11:39.273Z,102357.03
2022-08-11T10:14:32.662Z,102356.91
2022-08-11T10:17:07.412Z,102356.94
2022-08-11T10:19:38.764Z,102361.69
2022-08-11T10:22:28.012Z,102356.56
2022-08-11T10:25:19.834Z,102345.97
2022-08-11T10:28:30.740Z,102344.84
2022-08-11T10:31:12.461Z,102350.91
2022-08-11T10:34:01.570Z,102344.28
2022-08-11T10:36:49.812Z,102337.53
2022-08-11T10:39:22.600Z,102344.06
2022-08-11T10:42:25.584Z,102342.78
2022-08-11T10:45:26.151Z,102336.13
2022-08-11T10:47:57.851Z,102333.28
2022-08-11T10:50:46.890Z,102326.34
2022-08-11T10:53:37.476Z,102347.16
2022-08-11T10:56:27.110Z,102318.25
2022-08-11T10:59:00.781Z,102319.69
2022-08-11T11:01:38.127Z,102335.28
2022-08-11T11:04:18.180Z,102334.94
2022-08-11T11:07:04.838Z,102335.84
2022-08-11T11:09:42.320Z,102328.88
2022-08-11T11:12:45.932Z,102322.25
2022-08-11T11:15:38.158Z,102328.16
2022-08-11T11:18:16.454Z,102314.72
2022-08-11T11:21:07.306Z,102319.00
2022-08-11T11:23:56.633Z,102315.25
2022-08-11T11:26:57.058Z,102310.44
2022-08-11T11:29:45.742Z,102315.91
2022-08-11T11:32:24.407Z,102300.09
2022-08-11T11:35:16.057Z,102309.59
2022-08-11T11:38:04.479Z,102307.38
2022-08-11T11:40:37.819Z,102294.25
2022-08-11T11:43:08.473Z,102293.00
2022-08-11T11:45:41.800Z,102301.81
2022-08-11T11:48:12.693Z,102300.50
2022-08-11T11:50:44.283Z,102297.41
2022-08-11T11:53:14.718Z,102285.91
2022-08-11T11:55:46.068Z,102291.59
2022-08-11T11:58:36.138Z,102284.03
2022-08-11T12:01:21.059Z,102286.25
2022-08-11T12:03:53.940Z,102278.75
2022-08-11T12:06:25.647Z,102285.22
2022-08-11T12:08:58.005Z,102286.22
2022-08-11T12:11:48.723Z,102290.34
2022-08-11T12:14:20.507Z,102280.28
2022-08-11T12:16:51.404Z,102284.16
2022-08-11T12:19:25.759Z,102264.06
2022-08-11T12:22:31.187Z,102273.00
2022-08-11T12:25:21.611Z,102272.69
2022-08-11T12:27:55.590Z,102273.16
2022-08-11T12:30:26.247Z,102263.25
2022-08-11T12:32:57.755Z,102265.13
2022-08-11T12:35:27.950Z,102264.06
2022-08-11T12:38:09.839Z,102247.50
2022-08-11T12:41:17.736Z,102263.75
2022-08-11T12:44:07.624Z,102260.63
2022-08-11T12:46:44.333Z,102257.97
2022-08-11T12:49:38.953Z,102251.78
2022-08-11T12:52:19.275Z,102244.03
2022-08-11T12:54:59.159Z,102252.84
2022-08-11T12:58:04.069Z,102252.91
2022-08-11T13:00:52.844Z,102247.75
2022-08-11T13:03:42.847Z,102247.34
2022-08-11T13:06:13.948Z,102238.25
2022-08-11T13:08:46.667Z,102238.09
2022-08-11T13:11:56.632Z,102227.91
2022-08-11T13:14:28.229Z,102226.94
2022-08-11T13:17:18.409Z,102217.63
2022-08-11T13:19:50.025Z,102212.09
2022-08-11T13:22:22.296Z,102210.31
2022-08-11T13:24:55.523Z,102210.94
2022-08-11T13:27:26.530Z,102218.88
2022-08-11T13:30:16.262Z,102211.03
2022-08-11T13:32:46.778Z,102211.88
2022-08-11T13:35:18.465Z,102205.00
2022-08-11T13:38:17.432Z,102204.84
2022-08-11T13:40:55.326Z,102190.13
2022-08-11T13:43:27.463Z,102185.53
2022-08-11T13:46:18.367Z,102195.78
2022-08-11T13:48:50.500Z,102197.78
2022-08-11T13:51:34.418Z,102185.28
2022-08-11T13:54:09.268Z,102194.03
2022-08-11T13:56:42.773Z,102204.25
2022-08-11T13:59:15.310Z,102193.25
2022-08-11T14:02:19.353Z,102195.69
2022-08-11T14:04:53.022Z,102188.09
2022-08-11T14:07:27.762Z,102196.66
2022-08-11T14:10:00.408Z,102190.50
2022-08-11T14:12:52.674Z,102197.44
2022-08-11T14:15:28.046Z,102191.19
2022-08-11T14:18:05.258Z,102196.38
2022-08-11T14:20:59.364Z,102192.25
2022-08-11T14:23:35.862Z,102194.53
2022-08-11T14:26:24.084Z,102182.00
2022-08-11T14:29:00.862Z,102183.38
2022-08-11T14:31:33.872Z,102192.41
2022-08-11T14:34:10.922Z,102180.78
2022-08-11T14:36:45.683Z,102184.53
2022-08-11T14:39:18.704Z,102182.72
2022-08-11T14:42:19.402Z,102195.63
2022-08-11T14:45:11.554Z,102188.56
2022-08-11T14:47:44.571Z,102181.94
2022-08-11T14:50:18.975Z,102186.25
2022-08-11T14:52:56.743Z,102172.91
2022-08-11T14:55:49.549Z,102171.88
2022-08-11T14:58:23.460Z,102175.84
2022-08-11T15:00:57.210Z,102179.69
2022-08-11T15:03:33.895Z,102178.75
2022-08-11T15:06:05.362Z,102175.72
2022-08-11T15:08:57.732Z,102177.38
2022-08-11T15:11:50.705Z,102174.16
2022-08-11T15:14:39.905Z,102158.53
2022-08-11T15:17:13.342Z,102163.38
2022-08-11T15:20:02.794Z,102169.59
2022-08-11T15:22:51.351Z,102166.28
2022-08-11T15:25:21.666Z,102169.72
2022-08-11T15:28:13.898Z,102161.66
2022-08-11T15:31:04.034Z,102156.16
2022-08-11T15:33:57.400Z,102155.66
2022-08-11T15:36:49.188Z,102160.72
2022-08-11T15:39:32.747Z,102165.56
2022-08-11T15:42:33.822Z,102166.44
2022-08-11T15:45:24.660Z,102142.06
2022-08-11T15:48:06.528Z,102164.25
2022-08-11T15:50:42.406Z,102166.53
2022-08-11T15:53:22.188Z,102170.44
2022-08-11T15:55:53.675Z,102159.69
2022-08-11T15:58:48.741Z,102160.34
2022-08-11T16:02:01.310Z,102165.00
2022-08-11T16:04:33.223Z,102158.75
2022-08-11T16:07:11.835Z,102167.44
2022-08-11T16:09:52.756Z,102169.06
2022-08-11T16:12:31.760Z,102169.38
2022-08-11T16:15:26.410Z,102165.09
2022-08-11T16:18:01.509Z,102171.91
2022-08-11T16:20:33.895Z,102163.09
2022-08-11T16:23:07.594Z,102156.25
2022-08-11T16:27:01.741Z,102168.25
2022-08-11T16:28:31.913Z,102163.50
2022-08-11T16:31:03.016Z,102167.00
2022-08-11T16:33:50.001Z,102148.41
2022-08-11T16:36:43.299Z,102156.25
2022-08-11T16:39:18.559Z,102151.72
2022-08-11T16:42:09.278Z,102152.66
2022-08-11T16:45:19.340Z,102156.19
2022-08-11T16:48:01.737Z,102153.50
2022-08-11T16:50:35.096Z,102139.00
2022-08-11T16:53:05.793Z,102131.78
2022-08-11T16:55:51.271Z,102127.53
2022-08-11T16:58:42.908Z,102129.47
2022-08-11T17:01:15.157Z,102120.34
2022-08-11T17:04:10.313Z,102137.84
2022-08-11T17:07:04.346Z,102137.13
2022-08-11T17:10:31.685Z,102123.13
2022-08-11T17:13:09.693Z,102129.47
2022-08-11T17:16:13.120Z,102130.09
2022-08-11T17:18:57.316Z,102127.19
2022-08-11T17:21:37.408Z,102130.81
2022-08-11T17:24:14.507Z,102129.38
2022-08-11T17:26:59.017Z,102136.56
2022-08-11T17:29:55.540Z,102129.28
2022-08-11T17:32:57.082Z,102122.09
2022-08-11T17:35:38.938Z,102132.03
2022-08-11T17:38:18.451Z,102130.34
2022-08-11T17:41:18.618Z,102137.38
2022-08-11T17:44:14.766Z,102137.31
2022-08-11T17:47:06.341Z,102148.09
2022-08-11T17:49:39.503Z,102146.63
2022-08-11T17:52:35.160Z,102151.97
2022-08-11T17:55:51.698Z,102154.56
2022-08-11T17:58:36.608Z,102145.66
2022-08-11T18:01:11.111Z,102149.72
2022-08-11T18:03:57.897Z,102148.59
2022-08-11T18:06:34.179Z,102144.50
2022-08-11T18:09:28.422Z,102135.19
2022-08-11T18:12:18.657Z,102148.38
2022-08-11T18:15:13.926Z,102146.59
2022-08-11T18:18:02.603Z,102148.44
2022-08-11T18:20:54.301Z,102150.91
2022-08-11T18:23:47.161Z,102155.44
2022-08-11T18:26:39.873Z,102145.59
2022-08-11T18:29:30.036Z,102132.44
2022-08-11T18:32:21.312Z,102138.41
2022-08-11T18:35:13.947Z,102152.91
2022-08-11T18:38:07.095Z,102148.31
2022-08-11T18:40:56.792Z,102134.81
2022-08-11T18:43:47.110Z,102134.56
2022-08-11T18:46:38.398Z,102147.31
2022-08-11T18:50:01.656Z,102141.63
2022-08-11T18:52:47.030Z,102148.28
2022-08-11T18:55:38.607Z,102155.97
2022-08-11T18:58:30.718Z,102135.59
2022-08-11T19:01:21.400Z,102154.06
2022-08-11T19:04:17.073Z,102144.03
2022-08-11T19:07:12.476Z,102160.94
2022-08-11T19:10:03.711Z,102152.44
2022-08-11T19:12:59.971Z,102156.28
2022-08-11T19:15:49.606Z,102157.47
2022-08-11T19:18:40.972Z,102150.72
2022-08-11T19:21:30.245Z,102143.91
2022-08-11T19:24:21.474Z,102147.56
2022-08-11T19:27:12.648Z,102150.53
2022-08-11T19:30:12.635Z,102148.97
2022-08-11T19:33:04.435Z,102144.91
2022-08-11T19:35:53.702Z,102149.38
2022-08-11T19:38:43.505Z,102138.25
2022-08-11T19:41:52.022Z,102141.88
2022-08-11T19:44:43.986Z,102155.31
2022-08-11T19:47:35.243Z,102151.97
2022-08-11T19:50:25.509Z,102164.38
2022-08-11T19:53:16.924Z,102150.59
2022-08-11T19:56:09.814Z,102164.69
2022-08-11T19:58:59.620Z,102155.31
2022-08-11T20:02:01.215Z,102166.75
2022-08-11T20:04:56.862Z,102164.22
2022-08-11T20:07:47.435Z,102162.69
2022-08-11T20:10:39.610Z,102168.91
2022-08-11T20:13:30.078Z,102160.31
2022-08-11T20:16:22.813Z,102170.09
2022-08-11T20:19:13.210Z,102174.59
2022-08-11T20:22:07.447Z,102159.94
2022-08-11T20:24:59.149Z,102177.50
2022-08-11T20:27:50.245Z,102181.06
2022-08-11T20:30:41.558Z,102176.78
2022-08-11T20:33:30.635Z,102176.94
2022-08-11T20:36:21.271Z,102184.00
2022-08-11T20:39:12.044Z,102178.75
2022-08-11T20:42:01.618Z,102169.25
2022-08-11T20:44:52.459Z,102190.41
2022-08-11T20:47:59.354Z,102193.16
2022-08-11T20:50:52.417Z,102187.97
2022-08-11T20:53:44.631Z,102176.84
2022-08-11T20:56:34.279Z,102198.72
2022-08-11T20:59:25.004Z,102204.97
2022-08-11T21:02:15.940Z,102196.25
2022-08-11T21:05:04.938Z,102196.28
2022-08-11T21:07:58.769Z,102192.81
2022-08-11T21:10:54.039Z,102206.94
2022-08-11T21:13:47.807Z,102189.53
2022-08-11T21:16:47.662Z,102205.34
2022-08-11T21:19:59.962Z,102202.75
2022-08-11T21:23:05.273Z,102198.56
2022-08-11T21:26:01.573Z,102201.16
2022-08-11T21:28:54.018Z,102206.53
2022-08-11T21:31:45.260Z,102206.56
2022-08-11T21:34:38.046Z,102204.03
2022-08-11T21:37:29.338Z,102190.16
2022-08-11T21:40:21.482Z,102199.78
2022-08-11T21:43:11.683Z,102200.75
2022-08-11T21:46:02.421Z,102206.03
2022-08-11T21:48:53.098Z,102196.41
2022-08-11T21:51:44.678Z,102202.56
2022-08-11T21:54:34.902Z,102202.56
2022-08-11T21:57:24.563Z,102205.28
2022-08-11T22:00:18.679Z,102182.56
2022-08-11T22:03:08.147Z,102199.19
2022-08-11T22:05:59.961Z,102194.84
2022-08-11T22:08:49.064Z,102196.59
2022-08-11T22:11:39.210Z,102184.38
2022-08-11T22:14:27.914Z,102192.28
2022-08-11T22:17:16.544Z,102198.44
2022-08-11T22:20:06.124Z,102192.28
2022-08-11T22:22:55.350Z,102185.44
2022-08-11T22:25:51.618Z,102184.50
2022-08-11T22:28:44.040Z,102182.81
2022-08-11T22:31:33.233Z,102188.00
2022-08-11T22:34:22.250Z,102187.16
2022-08-11T22:37:11.460Z,102174.97
2022-08-11T22:40:17.213Z,102181.94
2022-08-11T22:43:05.809Z,102181.09
2022-08-11T22:45:54.469Z,102176.78
2022-08-11T22:48:48.160Z,102162.81
2022-08-11T22:51:39.937Z,102174.13
2022-08-11T22:54:29.595Z,102164.56
2022-08-11T22:57:18.712Z,102170.59
2022-08-11T23:00:07.362Z,102182.94
2022-08-11T23:02:56.977Z,102179.41
2022-08-11T23:05:46.679Z,102168.13
2022-08-11T23:08:36.394Z,102170.78
2022-08-11T23:11:26.101Z,102170.69
2022-08-11T23:14:35.035Z,102175.97
2022-08-11T23:17:24.140Z,102166.41
2022-08-11T23:20:32.200Z,102171.59
2022-08-11T23:23:23.434Z,102164.53
2022-08-11T23:26:14.614Z,102182.97
2022-08-11T23:29:05.224Z,102175.09
2022-08-11T23:31:56.308Z,102165.59
2022-08-11T23:35:04.301Z,102179.53
2022-08-11T23:37:55.674Z,102177.78
2022-08-11T23:40:48.234Z,102174.34
2022-08-11T23:43:41.633Z,102181.44
2022-08-11T23:46:30.098Z,102162.31
2022-08-11T23:49:22.257Z,102160.41
2022-08-11T23:52:11.847Z,102172.69
2022-08-11T23:55:01.518Z,102167.50
2022-08-11T23:57:51.255Z,102170.06
